Time;durP1;ratioP1;P1;durP2;ratioP2;P2;SDS_P1;SDS_P2;PMS_P1;PMS_P2;Temp;Humidity;BMP_temperature;BMP_pressure;BME280_temperature;BME280_humidity;BME280_pressure;Samples;Min_cycle;Max_cycle;Signal;HPM_P1;HPM_P2
2022/01/31 00:03:21;;;;;;;34.58;20.10;;;2.80;99.90;;;;;;1968746;72;22255;-87
2022/01/31 00:06:13;;;;;;;32.88;20.43;;;2.80;99.90;;;;;;1916118;73;21146;-87
2022/01/31 00:09:04;;;;;;;38.78;23.92;;;2.90;99.90;;;;;;1932926;73;21091;-87
2022/01/31 00:12:00;;;;;;;50.00;30.77;;;3.00;99.90;;;;;;1930094;73;21513;-87
2022/01/31 00:14:53;;;;;;;45.45;29.87;;;3.10;99.90;;;;;;1917751;75;21110;-87
2022/01/31 00:17:44;;;;;;;40.48;24.32;;;3.20;99.90;;;;;;1917577;75;21121;-87
2022/01/31 00:20:37;;;;;;;41.18;23.73;;;3.20;99.90;;;;;;1917700;73;21062;-88
2022/01/31 00:23:28;;;;;;;37.20;23.05;;;3.20;99.90;;;;;;1933587;73;21156;-87
2022/01/31 00:26:20;;;;;;;41.25;24.05;;;3.20;99.90;;;;;;1926892;73;21097;-87
2022/01/31 00:29:12;;;;;;;38.55;24.20;;;3.20;99.90;;;;;;1917564;75;21193;-87
2022/01/31 00:34:44;;;;;;;41.00;24.45;;;3.10;99.90;;;;;;1961897;72;22143;-87
2022/01/31 00:37:36;;;;;;;35.35;22.45;;;3.20;99.90;;;;;;1919428;73;21124;-87
2022/01/31 00:40:27;;;;;;;35.08;21.12;;;3.20;99.90;;;;;;1924166;73;21078;-87
2022/01/31 00:43:20;;;;;;;36.13;21.17;;;3.30;99.90;;;;;;1925168;73;21138;-87
2022/01/31 00:48:52;;;;;;;36.48;22.75;;;3.30;99.90;;;;;;1941064;72;22203;-86
2022/01/31 00:51:44;;;;;;;38.48;24.65;;;3.30;99.90;;;;;;1916805;73;21506;-87
2022/01/31 00:54:35;;;;;;;44.67;27.15;;;3.30;99.90;;;;;;1907321;73;21110;-86
2022/01/31 00:57:26;;;;;;;40.90;26.45;;;3.30;99.90;;;;;;1914138;75;21111;-87
2022/01/31 01:02:58;;;;;;;48.68;31.77;;;3.30;99.90;;;;;;1933355;72;22205;-88
2022/01/31 01:08:34;;;;;;;49.35;32.48;;;3.20;99.90;;;;;;1949458;72;20129;-87
2022/01/31 01:11:26;;;;;;;42.53;27.82;;;3.10;99.90;;;;;;1929473;73;21196;-87
2022/01/31 01:14:18;;;;;;;41.15;27.20;;;3.10;99.90;;;;;;1917580;73;21055;-87
2022/01/31 01:17:09;;;;;;;38.90;23.38;;;3.10;99.90;;;;;;1937261;73;21151;-87
2022/01/31 01:22:41;;;;;;;34.48;22.30;;;3.10;99.90;;;;;;1931268;72;22621;-86
2022/01/31 01:25:33;;;;;;;37.63;22.07;;;3.10;99.90;;;;;;1899448;75;21147;-86
2022/01/31 01:31:04;;;;;;;47.88;31.20;;;3.30;99.90;;;;;;1934064;72;22201;-87
2022/01/31 01:33:57;;;;;;;54.60;38.20;;;3.30;99.90;;;;;;1886835;75;21110;-87
2022/01/31 01:36:52;;;;;;;66.47;46.15;;;3.30;99.90;;;;;;1928675;73;21079;-86
2022/01/31 01:39:45;;;;;;;68.17;49.88;;;3.30;99.90;;;;;;1900061;75;21136;-88
2022/01/31 01:42:37;;;;;;;74.75;52.98;;;3.30;99.90;;;;;;1896921;75;21082;-87
2022/01/31 01:48:09;;;;;;;71.77;49.90;;;3.30;99.90;;;;;;1946247;72;22135;-87
2022/01/31 01:51:01;;;;;;;70.20;49.20;;;3.30;99.90;;;;;;1917744;75;21223;-86
2022/01/31 01:53:53;;;;;;;66.22;48.75;;;3.30;99.90;;;;;;1927365;73;21140;-87
2022/01/31 01:59:23;;;;;;;74.50;54.42;;;3.20;99.90;;;;;;1955612;72;22154;-87
2022/01/31 02:02:16;;;;;;;74.27;53.98;;;3.10;99.90;;;;;;1851775;75;21059;-87
2022/01/31 02:07:48;;;;;;;68.02;51.10;;;3.10;99.90;;;;;;1933411;72;22235;-87
2022/01/31 02:10:40;;;;;;;60.20;44.95;;;3.20;99.90;;;;;;1902324;73;21156;-86
2022/01/31 02:13:36;;;;;;;61.23;41.92;;;3.20;99.90;;;;;;1880600;76;21175;-87
2022/01/31 02:16:33;;;;;;;56.50;37.85;;;3.10;99.90;;;;;;1844672;75;21077;-86
2022/01/31 02:19:25;;;;;;;52.58;35.70;;;3.10;99.90;;;;;;1914011;75;21540;-87
2022/01/31 02:22:31;;;;;;;47.50;30.55;;;3.20;99.90;;;;;;1882562;73;21063;-87
2022/01/31 02:28:06;;;;;;;35.78;21.70;;;3.20;99.90;;;;;;1936037;72;22252;-87
2022/01/31 02:30:59;;;;;;;36.65;20.70;;;3.20;99.90;;;;;;1889247;75;21162;-87
2022/01/31 02:33:50;;;;;;;34.75;19.07;;;3.20;99.90;;;;;;1903441;75;21052;-88
2022/01/31 02:36:43;;;;;;;31.45;18.85;;;3.20;99.90;;;;;;1899377;75;21102;-87
2022/01/31 02:42:15;;;;;;;32.63;20.43;;;3.20;99.90;;;;;;1940449;72;22160;-87
2022/01/31 02:47:52;;;;;;;34.03;20.35;;;3.20;99.90;;;;;;1949064;72;22300;-87
2022/01/31 02:50:39;;;;;;;34.08;19.60;;;3.10;99.90;;;;;;1917714;75;21106;-87
2022/01/31 02:53:36;;;;;;;30.68;19.15;;;3.20;99.90;;;;;;1917767;75;21047;-86
2022/01/31 02:56:24;;;;;;;32.60;19.40;;;3.20;99.90;;;;;;1896449;75;21059;-88
2022/01/31 02:59:15;;;;;;;33.48;19.30;;;3.10;99.90;;;;;;1889130;75;21239;-88
2022/01/31 03:02:08;;;;;;;34.92;19.42;;;3.10;99.90;;;;;;1888851;75;21172;-87
2022/01/31 03:05:00;;;;;;;34.92;20.32;;;3.10;99.90;;;;;;1901007;75;21105;-87
2022/01/31 03:10:31;;;;;;;33.95;19.50;;;3.10;99.90;;;;;;1948148;72;22168;-87
2022/01/31 03:13:23;;;;;;;32.40;19.12;;;3.10;99.90;;;;;;1893627;75;21047;-86
2022/01/31 03:16:16;;;;;;;34.40;20.12;;;3.00;99.90;;;;;;1891470;75;21114;-86
2022/01/31 03:19:12;;;;;;;33.65;19.42;;;3.00;99.90;;;;;;1860737;75;21129;-86
2022/01/31 03:24:46;;;;;;;32.70;18.60;;;3.00;99.90;;;;;;1942077;72;22659;-87
2022/01/31 03:27:38;;;;;;;32.78;18.80;;;3.10;99.90;;;;;;1891301;74;21110;-88
2022/01/31 03:33:15;;;;;;;32.65;20.15;;;3.00;99.90;;;;;;1956128;72;20121;-87
2022/01/31 03:36:07;;;;;;;34.50;19.57;;;3.00;99.90;;;;;;1933357;73;21478;-87
2022/01/31 03:38:59;;;;;;;33.20;19.65;;;3.00;99.90;;;;;;1915125;75;21042;-88
2022/01/31 03:44:43;;;;;;;33.73;19.02;;;3.00;99.90;;;;;;1959324;72;22248;-87
2022/01/31 03:47:36;;;;;;;32.50;19.12;;;3.10;99.90;;;;;;1917750;75;21056;-87
2022/01/31 03:50:29;;;;;;;34.08;19.02;;;3.10;99.90;;;;;;1940377;73;21094;-87
2022/01/31 03:53:21;;;;;;;31.95;18.85;;;3.10;99.90;;;;;;1926288;73;21110;-87
2022/01/31 03:56:14;;;;;;;32.03;19.52;;;3.10;99.90;;;;;;1919410;73;21167;-87
2022/01/31 03:59:08;;;;;;;29.40;17.75;;;3.20;99.90;;;;;;1945120;73;21062;-87
2022/01/31 04:04:45;;;;;;;31.60;18.50;;;3.30;99.90;;;;;;1946991;72;22115;-86
2022/01/31 04:07:37;;;;;;;33.90;19.27;;;3.30;99.90;;;;;;1938178;73;21240;-86
2022/01/31 04:13:11;;;;;;;33.55;19.70;;;3.30;99.90;;;;;;1920986;72;22315;-87
2022/01/31 04:18:45;;;;;;;28.65;18.57;;;3.40;99.90;;;;;;1937046;72;22321;-87
2022/01/31 04:21:37;;;;;;;32.53;19.25;;;3.40;99.90;;;;;;1880139;75;21609;-86
2022/01/31 04:24:33;;;;;;;33.88;20.65;;;3.40;99.90;;;;;;1878787;75;21530;-87
2022/01/31 04:27:27;;;;;;;34.25;20.32;;;3.30;99.90;;;;;;1877235;75;21114;-86
2022/01/31 04:35:40;;;;;;;31.82;19.62;;;2.80;99.90;;;;;;1933990;72;22201;-87
2022/01/31 04:44:33;;;;;;;33.10;19.42;;;2.90;99.90;;;;;;1945762;72;22141;-87
2022/01/31 04:47:24;;;;;;;33.90;19.42;;;3.00;99.90;;;;;;1943863;73;21349;-87
2022/01/31 04:50:16;;;;;;;30.88;18.95;;;3.00;99.90;;;;;;1919443;73;21046;-87
2022/01/31 04:55:47;;;;;;;32.48;18.57;;;3.10;99.90;;;;;;1933549;72;22114;-88
2022/01/31 04:58:40;;;;;;;31.48;18.80;;;3.10;99.90;;;;;;1910066;75;21051;-88
2022/01/31 05:01:31;;;;;;;28.15;16.60;;;3.20;99.90;;;;;;1889681;75;21164;-87
2022/01/31 05:07:02;;;;;;;30.50;18.50;;;3.40;99.90;;;;;;1943364;72;22232;-86
2022/01/31 05:09:52;;;;;;;32.93;18.87;;;3.40;99.90;;;;;;1900761;74;21218;-86
2022/01/31 05:12:44;;;;;;;31.65;18.23;;;3.40;99.90;;;;;;1905983;75;21047;-86
2022/01/31 05:18:14;;;;;;;34.08;19.20;;;3.30;99.90;;;;;;1932783;72;22126;-87
2022/01/31 05:23:55;;;;;;;34.30;18.12;;;3.30;99.90;;;;;;1954638;72;22131;-87
2022/01/31 05:29:27;;;;;;;31.45;18.80;;;3.20;99.90;;;;;;1934630;72;22264;-87
2022/01/31 05:32:18;;;;;;;31.90;19.07;;;3.20;99.90;;;;;;1897165;75;21055;-87
2022/01/31 05:35:09;;;;;;;29.55;17.57;;;3.30;99.90;;;;;;1899532;75;21063;-86
2022/01/31 05:38:00;;;;;;;29.15;17.77;;;3.30;99.90;;;;;;1885582;75;21055;-86
2022/01/31 05:40:51;;;;;;;32.88;17.40;;;3.20;99.90;;;;;;1896426;75;21046;-87
2022/01/31 05:43:42;;;;;;;28.67;17.90;;;3.30;99.90;;;;;;1898156;75;21113;-86
2022/01/31 05:46:33;;;;;;;32.00;18.87;;;3.20;99.90;;;;;;1916196;75;21056;-86
2022/01/31 05:49:24;;;;;;;33.48;19.00;;;3.10;99.90;;;;;;1910118;75;21137;-86
2022/01/31 05:54:56;;;;;;;31.05;18.10;;;3.20;99.90;;;;;;1972847;72;22216;-88
2022/01/31 05:57:47;;;;;;;30.62;18.15;;;3.20;99.90;;;;;;1936741;73;21348;-87
2022/01/31 06:03:18;;;;;;;28.77;17.60;;;3.30;99.90;;;;;;1956331;72;22259;-88
2022/01/31 06:06:10;;;;;;;31.40;18.80;;;3.30;99.90;;;;;;1896353;75;21181;-88
2022/01/31 06:09:04;;;;;;;30.20;18.00;;;3.30;99.90;;;;;;1898312;75;21050;-87
2022/01/31 06:11:56;;;;;;;29.60;16.93;;;3.40;99.90;;;;;;1859805;76;21054;-87
2022/01/31 06:14:47;;;;;;;34.50;19.00;;;3.50;99.90;;;;;;1902892;75;21051;-88
2022/01/31 06:20:19;;;;;;;30.10;17.55;;;3.70;99.90;;;;;;1944969;72;22205;-88
2022/01/31 06:23:11;;;;;;;28.52;17.65;;;3.70;99.90;;;;;;1900360;75;21060;-88
2022/01/31 06:26:04;;;;;;;31.68;17.87;;;3.40;99.90;;;;;;1906058;75;21174;-87
2022/01/31 06:28:56;;;;;;;29.42;18.42;;;3.40;99.90;;;;;;1890080;75;21101;-87
2022/01/31 06:31:55;;;;;;;34.20;19.27;;;3.40;99.90;;;;;;1912709;75;21153;-87
2022/01/31 06:34:47;;;;;;;30.48;18.40;;;3.40;99.90;;;;;;1884732;76;21059;-88
2022/01/31 06:40:21;;;;;;;35.15;19.17;;;3.40;99.90;;;;;;1950311;72;22631;-88
2022/01/31 06:43:13;;;;;;;33.05;19.12;;;3.50;99.90;;;;;;1934756;72;21243;-88
2022/01/31 06:48:43;;;;;;;28.30;17.00;;;3.60;99.90;;;;;;1951750;72;22170;-88
2022/01/31 06:51:35;;;;;;;31.73;17.60;;;3.60;99.90;;;;;;1910560;74;21840;-88
2022/01/31 06:57:06;;;;;;;33.23;17.25;;;3.60;99.90;;;;;;1961146;72;22146;-77
2022/01/31 06:59:57;;;;;;;32.93;18.25;;;3.50;99.90;;;;;;1926062;73;21213;-79
2022/01/31 07:02:55;;;;;;;31.50;18.17;;;3.50;99.90;;;;;;1929698;73;21175;-79
2022/01/31 07:05:52;;;;;;;30.95;18.40;;;3.50;99.90;;;;;;1924038;73;21541;-77
2022/01/31 07:11:28;;;;;;;32.58;18.35;;;3.50;99.90;;;;;;1916566;72;22281;-78
2022/01/31 07:14:30;;;;;;;30.65;18.05;;;3.50;99.90;;;;;;1899647;75;21085;-77
2022/01/31 07:17:21;;;;;;;29.48;17.40;;;3.40;99.90;;;;;;1854876;76;21111;-77
2022/01/31 07:22:56;;;;;;;29.50;17.02;;;3.40;99.90;;;;;;1936119;72;22173;-77
2022/01/31 07:25:45;;;;;;;32.70;17.62;;;3.50;99.90;;;;;;1897574;75;21117;-77
2022/01/31 07:28:37;;;;;;;34.73;17.27;;;3.60;99.90;;;;;;1905987;75;21217;-77
2022/01/31 07:34:08;;;;;;;30.12;17.57;;;3.70;99.90;;;;;;1945531;72;22219;-77
2022/01/31 07:37:00;;;;;;;28.35;17.48;;;3.80;99.90;;;;;;1952770;73;21104;-76
2022/01/31 07:39:51;;;;;;;28.95;17.57;;;3.90;99.90;;;;;;1929508;73;21091;-77
2022/01/31 07:42:43;;;;;;;29.42;17.50;;;3.90;99.90;;;;;;1930334;73;21047;-77
2022/01/31 07:48:25;;;;;;;26.27;14.83;;;4.10;99.90;;;;;;1942027;72;22163;-77
2022/01/31 07:51:17;;;;;;;26.55;15.48;;;4.20;99.90;;;;;;1917312;75;21105;-77
2022/01/31 07:54:10;;;;;;;30.55;17.75;;;4.10;99.90;;;;;;1917062;75;21170;-78
2022/01/31 07:57:02;;;;;;;29.77;17.40;;;4.30;99.90;;;;;;1926167;73;21059;-78
2022/01/31 07:59:55;;;;;;;32.23;18.80;;;4.30;99.90;;;;;;1930471;73;21067;-77
2022/01/31 08:02:47;;;;;;;36.53;18.75;;;4.10;99.90;;;;;;1931291;73;21097;-77
2022/01/31 08:08:16;;;;;;;34.73;18.95;;;4.00;99.90;;;;;;1958946;72;22225;-77
2022/01/31 08:13:46;;;;;;;29.10;17.70;;;4.20;99.90;;;;;;1953080;72;22254;-77
2022/01/31 08:19:15;;;;;;;26.82;15.18;;;4.30;99.90;;;;;;1957825;72;22225;-78
2022/01/31 08:22:08;;;;;;;26.55;15.68;;;4.40;99.90;;;;;;1930135;73;21135;-77
2022/01/31 08:25:00;;;;;;;26.15;15.40;;;4.40;99.90;;;;;;1917721;75;21066;-77
2022/01/31 08:28:00;;;;;;;24.00;14.87;;;4.50;99.90;;;;;;1917245;75;21114;-77
2022/01/31 08:33:35;;;;;;;32.78;16.93;;;4.60;99.90;;;;;;1955771;72;22128;-76
2022/01/31 08:39:09;;;;;;;27.17;15.90;;;4.70;99.90;;;;;;1952019;72;22115;-78
2022/01/31 08:44:40;;;;;;;23.83;15.63;;;4.80;99.90;;;;;;1951953;72;22672;-77
2022/01/31 08:50:11;;;;;;;32.88;19.98;;;4.90;99.90;;;;;;1957198;72;22258;-78
2022/01/31 08:55:50;;;;;;;31.40;17.23;;;4.80;99.90;;;;;;1954694;72;22123;-78
2022/01/31 08:58:46;;;;;;;26.70;16.25;;;4.70;99.90;;;;;;1906606;75;21128;-78
2022/01/31 09:01:36;;;;;;;31.15;17.05;;;4.80;99.90;;;;;;1905774;75;21161;-77
2022/01/31 09:04:34;;;;;;;25.75;17.12;;;4.90;99.90;;;;;;1884640;75;21061;-77
2022/01/31 09:07:25;;;;;;;29.63;16.73;;;5.00;99.90;;;;;;1902364;75;21058;-78
2022/01/31 09:10:18;;;;;;;27.27;15.90;;;5.10;99.90;;;;;;1906890;75;21165;-77
2022/01/31 09:13:10;;;;;;;25.80;15.85;;;5.10;99.90;;;;;;1906597;75;21114;-78
2022/01/31 09:18:41;;;;;;;27.80;17.48;;;5.40;99.90;;;;;;1964691;72;22159;-77
2022/01/31 09:21:34;;;;;;;24.47;15.00;;;5.60;99.90;;;;;;1919786;73;21161;-77
2022/01/31 09:24:25;;;;;;;28.98;16.75;;;5.70;99.90;;;;;;1917571;75;21156;-77
2022/01/31 09:27:17;;;;;;;24.70;15.25;;;5.80;99.90;;;;;;1944078;73;21125;-77
2022/01/31 09:30:14;;;;;;;25.45;15.43;;;5.90;99.90;;;;;;1917445;75;21055;-78
2022/01/31 09:33:05;;;;;;;25.75;15.43;;;6.10;99.90;;;;;;1875631;76;21070;-77
2022/01/31 09:35:57;;;;;;;26.80;15.75;;;6.10;99.90;;;;;;1860335;76;21573;-77
2022/01/31 09:38:48;;;;;;;25.32;15.88;;;6.20;99.90;;;;;;1939323;73;21208;-77
2022/01/31 09:41:42;;;;;;;23.40;15.53;;;6.30;99.90;;;;;;1917334;75;21058;-77
2022/01/31 09:44:50;;;;;;;24.52;15.55;;;6.30;99.90;;;;;;1940351;73;21096;-76
2022/01/31 09:50:16;;;;;;;26.37;15.95;;;6.30;99.90;;;;;;1953899;72;22126;-77
2022/01/31 09:53:08;;;;;;;32.15;16.87;;;6.30;99.90;;;;;;1932373;73;21080;-76
2022/01/31 09:55:59;;;;;;;23.95;15.48;;;6.40;99.90;;;;;;1928524;73;21126;-77
2022/01/31 09:58:52;;;;;;;28.50;15.32;;;6.30;99.90;;;;;;1924303;73;21059;-77
2022/01/31 10:01:47;;;;;;;26.73;16.48;;;6.20;99.90;;;;;;1917717;75;21050;-77
2022/01/31 10:04:44;;;;;;;24.35;16.42;;;6.20;99.90;;;;;;1934680;73;21156;-77
2022/01/31 10:07:48;;;;;;;25.88;15.72;;;6.40;99.90;;;;;;1929701;73;21120;-77
2022/01/31 10:10:42;;;;;;;28.87;15.90;;;6.50;99.90;;;;;;1951058;73;21044;-77
2022/01/31 10:16:47;;;;;;;26.00;15.78;;;6.60;99.90;;;;;;1917478;73;21135;-78
2022/01/31 10:19:42;;;;;;;28.90;15.23;;;6.50;99.90;;;;;;1940339;73;21179;-77
2022/01/31 10:22:36;;;;;;;27.27;16.57;;;6.60;99.90;;;;;;1917390;73;21107;-77
2022/01/31 10:25:28;;;;;;;26.17;16.67;;;6.80;99.90;;;;;;1931592;73;21105;-77
2022/01/31 10:28:27;;;;;;;24.37;15.75;;;6.90;99.90;;;;;;1919274;73;21193;-78
2022/01/31 10:31:19;;;;;;;23.35;16.00;;;7.00;99.90;;;;;;1940336;73;21059;-77
2022/01/31 10:34:19;;;;;;;30.35;16.45;;;7.10;99.90;;;;;;1940365;73;21032;-76
2022/01/31 10:37:14;;;;;;;24.23;16.23;;;7.20;99.90;;;;;;1917511;75;21156;-77
2022/01/31 10:43:57;;;;;;;24.72;15.80;;;7.20;99.90;;;;;;1931203;73;21117;-76
2022/01/31 10:53:05;;;;;;;26.25;15.48;;;7.20;99.90;;;;;;1941318;73;21095;-77
2022/01/31 10:55:56;;;;;;;28.20;15.40;;;7.30;99.90;;;;;;1938573;73;21121;-77
2022/01/31 10:59:00;;;;;;;26.65;16.12;;;7.20;99.90;;;;;;1938126;73;21090;-77
2022/01/31 11:01:52;;;;;;;24.12;13.58;;;7.30;99.90;;;;;;1937852;73;21130;-77
2022/01/31 11:04:46;;;;;;;28.75;15.70;;;7.50;99.90;;;;;;1941724;73;21214;-77
2022/01/31 11:07:37;;;;;;;22.75;13.85;;;7.60;99.90;;;;;;1940311;73;21051;-77
2022/01/31 11:10:33;;;;;;;16.85;11.93;;;7.70;99.90;;;;;;1937568;73;21099;-77
2022/01/31 11:13:25;;;;;;;9.10;5.05;;;7.70;99.90;;;;;;1933791;73;21126;-79
2022/01/31 11:16:17;;;;;;;13.25;7.83;;;7.70;99.90;;;;;;1948301;73;21055;-77
2022/01/31 11:19:10;;;;;;;13.98;9.35;;;7.70;99.90;;;;;;1926662;74;21113;-77
2022/01/31 11:22:04;;;;;;;21.10;13.68;;;7.70;99.90;;;;;;1926582;74;21059;-77
2022/01/31 11:24:58;;;;;;;12.93;7.20;;;7.70;99.90;;;;;;1926532;74;21223;-78
2022/01/31 11:27:51;;;;;;;24.20;14.85;;;7.60;99.90;;;;;;1926327;74;21153;-78
2022/01/31 11:33:27;;;;;;;9.23;5.90;;;7.40;99.90;;;;;;1945688;72;22127;-77
2022/01/31 11:36:19;;;;;;;2.47;1.55;;;7.50;99.90;;;;;;1884432;75;21148;-77
2022/01/31 11:39:13;;;;;;;5.42;1.17;;;7.30;99.90;;;;;;1906376;75;21144;-77
2022/01/31 11:42:09;;;;;;;2.25;1.40;;;7.20;99.90;;;;;;1903529;75;21126;-77
2022/01/31 11:45:05;;;;;;;1.55;1.15;;;7.20;99.90;;;;;;1899175;75;21086;-77
2022/01/31 11:47:59;;;;;;;1.90;1.00;;;7.20;99.90;;;;;;1895729;75;21051;-77
2022/01/31 11:50:53;;;;;;;2.55;1.10;;;7.10;99.90;;;;;;1917467;75;21120;-77
2022/01/31 11:53:44;;;;;;;1.52;0.90;;;7.00;99.90;;;;;;1895634;75;21110;-77
2022/01/31 11:56:44;;;;;;;2.00;1.12;;;7.10;99.90;;;;;;1900284;75;21118;-77
2022/01/31 11:59:38;;;;;;;8.83;6.22;;;7.10;99.90;;;;;;1898478;75;21117;-76
2022/01/31 12:02:31;;;;;;;18.17;12.80;;;7.30;99.90;;;;;;1895475;75;21047;-76
2022/01/31 12:05:25;;;;;;;22.42;13.85;;;7.40;99.90;;;;;;1855112;76;21152;-76
2022/01/31 12:08:21;;;;;;;24.10;14.90;;;7.50;99.90;;;;;;1849140;77;21158;-77
2022/01/31 12:11:15;;;;;;;18.77;13.35;;;7.50;99.90;;;;;;1884593;76;21134;-76
2022/01/31 12:14:09;;;;;;;19.23;13.53;;;7.50;99.90;;;;;;1884613;75;21328;-77
2022/01/31 12:17:20;;;;;;;22.98;14.35;;;7.50;99.90;;;;;;1893875;75;21179;-77
2022/01/31 12:20:14;;;;;;;19.40;12.15;;;7.40;99.90;;;;;;1895026;75;21091;-77
2022/01/31 12:22:57;;;;;;;21.10;13.78;;;7.30;99.90;;;;;;1894369;75;21064;-78
2022/01/31 12:25:48;;;;;;;22.73;13.25;;;7.30;99.90;;;;;;1902867;75;21125;-78
2022/01/31 12:28:43;;;;;;;18.90;13.03;;;7.30;99.90;;;;;;1861319;76;21094;-78
2022/01/31 12:31:38;;;;;;;19.82;12.75;;;7.40;99.90;;;;;;1887305;75;21055;-77
2022/01/31 12:34:40;;;;;;;20.32;13.45;;;7.50;99.90;;;;;;1915894;74;21106;-77
2022/01/31 12:37:34;;;;;;;21.27;13.65;;;7.40;99.90;;;;;;1849229;76;21065;-77
2022/01/31 12:40:29;;;;;;;22.37;14.45;;;7.30;99.90;;;;;;1863244;76;21174;-79
2022/01/31 12:43:46;;;;;;;18.07;13.32;;;7.30;99.90;;;;;;1861467;76;21042;-77
2022/01/31 12:46:20;;;;;;;19.05;12.73;;;7.30;99.90;;;;;;1843098;77;21075;-77
2022/01/31 12:49:13;;;;;;;24.32;13.88;;;7.30;99.90;;;;;;1842951;77;21121;-77
2022/01/31 12:52:06;;;;;;;21.05;13.50;;;7.30;99.90;;;;;;1857756;77;21138;-78
2022/01/31 12:57:53;;;;;;;17.20;12.60;;;7.30;99.90;;;;;;1955037;72;22138;-78
2022/01/31 13:00:45;;;;;;;15.20;9.28;;;7.30;99.90;;;;;;1887745;74;21081;-77
2022/01/31 13:03:39;;;;;;;13.25;8.88;;;7.40;99.90;;;;;;1884655;76;21080;-76
2022/01/31 13:06:38;;;;;;;2.10;1.00;;;7.40;99.90;;;;;;1905560;75;21051;-79
2022/01/31 13:09:31;;;;;;;2.97;1.03;;;7.40;99.90;;;;;;1901644;75;21568;-78
2022/01/31 13:12:25;;;;;;;1.45;0.88;;;7.30;99.90;;;;;;1896694;75;21059;-76
2022/01/31 13:15:25;;;;;;;6.42;3.77;;;7.00;99.90;;;;;;1895248;75;21102;-77
2022/01/31 13:18:18;;;;;;;7.17;5.20;;;6.80;99.90;;;;;;1892092;75;21169;-77
2022/01/31 13:21:12;;;;;;;7.92;4.60;;;6.80;99.90;;;;;;1884598;76;21059;-77
2022/01/31 13:24:03;;;;;;;8.68;5.55;;;6.80;99.90;;;;;;1901405;75;21124;-76
2022/01/31 13:26:57;;;;;;;9.53;6.67;;;6.90;99.90;;;;;;1896196;75;21106;-78
2022/01/31 13:29:51;;;;;;;8.33;5.37;;;6.90;99.90;;;;;;1888210;75;21183;-78
2022/01/31 13:32:43;;;;;;;9.98;6.72;;;7.00;99.90;;;;;;1886812;75;21086;-76
2022/01/31 13:35:37;;;;;;;15.10;7.03;;;7.10;99.90;;;;;;1898569;75;21099;-76
2022/01/31 13:38:30;;;;;;;12.60;7.78;;;7.10;99.90;;;;;;1899285;75;21047;-78
2022/01/31 13:41:27;;;;;;;20.08;11.05;;;7.20;99.90;;;;;;1895569;75;21051;-78
2022/01/31 13:44:21;;;;;;;19.23;12.75;;;7.30;99.90;;;;;;1895843;75;21111;-76
2022/01/31 13:47:12;;;;;;;20.68;12.78;;;7.30;99.90;;;;;;1895618;75;21083;-78
2022/01/31 13:50:12;;;;;;;20.77;12.55;;;7.30;99.90;;;;;;1899838;75;21094;-76
2022/01/31 13:53:05;;;;;;;19.52;12.60;;;7.30;99.90;;;;;;1897630;75;21111;-77
2022/01/31 13:55:58;;;;;;;20.30;13.22;;;7.20;99.90;;;;;;1886044;75;21104;-77
2022/01/31 13:59:00;;;;;;;17.98;13.03;;;7.20;99.90;;;;;;1906662;75;21114;-78
2022/01/31 14:01:53;;;;;;;20.00;13.10;;;7.10;99.90;;;;;;1886166;75;21088;-77
2022/01/31 14:04:45;;;;;;;22.60;13.40;;;7.00;99.90;;;;;;1899125;75;21058;-77
2022/01/31 14:07:36;;;;;;;18.25;13.68;;;7.10;99.90;;;;;;1897371;75;21211;-77
2022/01/31 14:10:31;;;;;;;19.65;12.63;;;7.00;99.90;;;;;;1895028;75;21079;-78
2022/01/31 14:13:24;;;;;;;18.87;12.88;;;7.00;99.90;;;;;;1894931;75;21147;-77
2022/01/31 14:16:19;;;;;;;17.20;12.05;;;6.90;99.90;;;;;;1896090;75;21165;-77
2022/01/31 14:19:12;;;;;;;17.32;11.63;;;6.90;99.90;;;;;;1900306;75;21063;-77
2022/01/31 14:22:05;;;;;;;18.10;11.55;;;6.90;99.90;;;;;;1895353;75;21120;-77
2022/01/31 14:25:00;;;;;;;16.82;11.43;;;6.90;99.90;;;;;;1894945;75;21157;-76
2022/01/31 14:27:53;;;;;;;18.48;11.43;;;6.80;99.90;;;;;;1894319;75;21066;-77
2022/01/31 14:30:50;;;;;;;5.58;1.87;;;6.80;99.90;;;;;;1897619;75;21067;-77
2022/01/31 14:33:46;;;;;;;12.90;8.90;;;6.80;99.90;;;;;;1884013;76;21059;-76
2022/01/31 14:36:40;;;;;;;3.87;2.30;;;7.00;99.90;;;;;;1905859;75;21118;-76
2022/01/31 14:39:38;;;;;;;15.55;8.95;;;7.20;99.90;;;;;;1906073;75;21117;-77
2022/01/31 14:42:46;;;;;;;15.48;10.50;;;7.10;99.90;;;;;;1906894;75;21056;-76
2022/01/31 14:48:45;;;;;;;1.87;1.35;;;7.10;99.90;;;;;;1904030;75;21110;-76
2022/01/31 14:51:38;;;;;;;1.92;1.20;;;7.00;99.90;;;;;;1916994;75;21132;-76
2022/01/31 14:54:29;;;;;;;2.98;1.30;;;7.10;99.90;;;;;;1894646;75;21059;-77
2022/01/31 14:57:21;;;;;;;9.38;6.55;;;7.00;99.90;;;;;;1895417;74;21109;-77
2022/01/31 15:00:17;;;;;;;7.67;5.17;;;7.00;99.90;;;;;;1904280;74;21101;-77
2022/01/31 15:03:09;;;;;;;3.92;1.60;;;6.90;99.90;;;;;;1908191;74;21103;-77
2022/01/31 15:06:01;;;;;;;4.58;2.10;;;6.80;99.90;;;;;;1906788;74;21204;-76
2022/01/31 15:08:56;;;;;;;3.47;2.08;;;6.80;99.90;;;;;;1896467;74;21111;-78
2022/01/31 15:11:49;;;;;;;3.10;2.37;;;6.60;99.90;;;;;;1915615;74;21143;-78
2022/01/31 15:14:41;;;;;;;4.10;2.77;;;6.40;99.90;;;;;;1893441;76;21683;-79
2022/01/31 15:17:37;;;;;;;5.10;2.62;;;6.30;99.90;;;;;;1909063;74;21051;-79
2022/01/31 15:20:30;;;;;;;6.15;2.60;;;6.30;99.90;;;;;;1904881;74;21054;-79
2022/01/31 15:23:22;;;;;;;3.12;2.42;;;6.40;99.90;;;;;;1904532;74;21123;-79
2022/01/31 15:26:17;;;;;;;3.40;2.47;;;6.40;99.90;;;;;;1904489;74;21116;-79
2022/01/31 15:29:08;;;;;;;4.40;3.08;;;6.50;99.90;;;;;;1906869;74;21090;-78
2022/01/31 15:32:01;;;;;;;4.72;2.98;;;6.60;99.90;;;;;;1908037;74;21054;-78
2022/01/31 15:34:53;;;;;;;5.17;2.25;;;6.60;99.90;;;;;;1904235;74;21143;-78
2022/01/31 15:37:45;;;;;;;5.12;2.42;;;6.70;99.90;;;;;;1903933;74;21065;-78
2022/01/31 15:40:38;;;;;;;5.42;1.67;;;6.80;99.90;;;;;;1905553;74;21134;-78
2022/01/31 15:43:31;;;;;;;4.08;2.00;;;6.80;99.90;;;;;;1909417;74;21084;-79
2022/01/31 15:46:26;;;;;;;3.77;1.70;;;6.80;99.90;;;;;;1905541;74;21161;-78
2022/01/31 15:49:18;;;;;;;4.20;2.20;;;6.90;99.90;;;;;;1904289;74;21117;-78
2022/01/31 15:52:10;;;;;;;3.30;1.62;;;7.00;99.90;;;;;;1924413;74;21594;-78
2022/01/31 15:55:01;;;;;;;2.67;1.45;;;7.00;99.90;;;;;;1912017;74;21051;-78
2022/01/31 15:57:55;;;;;;;3.05;1.40;;;7.10;99.90;;;;;;1907189;74;21129;-79
2022/01/31 16:00:50;;;;;;;3.62;1.50;;;7.20;99.90;;;;;;1926203;74;21132;-81
2022/01/31 16:03:42;;;;;;;5.97;1.98;;;6.90;99.90;;;;;;1904480;74;21112;-81
2022/01/31 16:06:33;;;;;;;2.42;1.50;;;6.60;99.90;;;;;;1904355;74;21059;-82
2022/01/31 16:09:26;;;;;;;2.45;0.78;;;6.40;99.90;;;;;;1910318;74;21113;-85
2022/01/31 16:12:18;;;;;;;2.85;0.42;;;6.20;99.90;;;;;;1905870;74;21142;-88
2022/01/31 16:15:15;;;;;;;1.47;0.70;;;5.80;99.90;;;;;;1897743;74;21167;-85
2022/01/31 16:18:07;;;;;;;1.87;0.45;;;5.50;99.90;;;;;;1914934;74;21058;-85
2022/01/31 16:23:43;;;;;;;2.12;0.70;;;5.20;99.90;;;;;;1957815;72;22432;-87
2022/01/31 16:26:35;;;;;;;3.22;0.80;;;5.20;99.90;;;;;;1910838;75;21103;-86
2022/01/31 16:29:29;;;;;;;1.87;0.78;;;5.10;99.90;;;;;;1849090;76;21172;-85
2022/01/31 16:32:21;;;;;;;3.67;1.17;;;5.10;99.90;;;;;;1884651;75;21655;-83
2022/01/31 16:35:14;;;;;;;2.45;0.90;;;5.00;99.90;;;;;;1884234;75;21504;-83
2022/01/31 16:38:07;;;;;;;1.82;0.80;;;5.10;99.90;;;;;;1893481;75;21108;-83
2022/01/31 16:41:00;;;;;;;3.20;0.80;;;5.10;99.90;;;;;;1895119;75;21521;-82
2022/01/31 16:43:52;;;;;;;1.42;0.70;;;5.20;99.90;;;;;;1895684;75;21566;-82
2022/01/31 16:46:47;;;;;;;1.32;0.60;;;5.30;99.90;;;;;;1884665;76;21058;-82
2022/01/31 16:49:40;;;;;;;0.75;0.62;;;5.30;99.90;;;;;;1896755;75;21165;-82
2022/01/31 16:52:35;;;;;;;2.05;0.72;;;5.50;99.90;;;;;;1895083;75;21546;-81
2022/01/31 16:55:26;;;;;;;2.15;0.60;;;5.70;99.90;;;;;;1915281;75;21046;-81
2022/01/31 16:58:18;;;;;;;2.15;0.50;;;6.10;99.90;;;;;;1903922;75;21051;-81
2022/01/31 17:01:11;;;;;;;3.87;0.60;;;6.30;99.90;;;;;;1898972;75;21047;-81
2022/01/31 17:04:02;;;;;;;2.45;0.70;;;6.40;99.90;;;;;;1895581;75;21081;-82
2022/01/31 17:06:54;;;;;;;3.55;0.85;;;6.50;99.90;;;;;;1895685;75;21135;-80
2022/01/31 17:09:45;;;;;;;3.92;0.82;;;6.40;99.90;;;;;;1895851;75;21063;-80
2022/01/31 17:12:37;;;;;;;2.15;0.65;;;6.30;99.90;;;;;;1900868;75;21117;-80
2022/01/31 17:15:28;;;;;;;2.17;0.50;;;6.30;99.90;;;;;;1896011;75;21047;-80
2022/01/31 17:18:20;;;;;;;1.77;0.88;;;6.30;99.90;;;;;;1890248;75;21095;-80
2022/01/31 17:21:12;;;;;;;2.50;0.85;;;6.30;99.90;;;;;;1905950;75;21173;-79
2022/01/31 17:24:04;;;;;;;7.62;1.00;;;6.20;99.90;;;;;;1912626;74;21189;-79
2022/01/31 17:26:55;;;;;;;1.62;0.95;;;6.20;99.90;;;;;;1911482;74;21116;-78
2022/01/31 17:29:46;;;;;;;2.58;0.80;;;6.20;99.90;;;;;;1905319;74;21061;-78
2022/01/31 17:32:38;;;;;;;2.95;0.90;;;6.20;99.90;;;;;;1922621;74;21164;-78